createdAt,value
2022-12-03T00:01:50.196Z,102197.53
2022-12-03T00:06:52.331Z,102181.72
2022-12-03T00:11:55.983Z,102198.16
2022-12-03T00:16:58.202Z,102188.44
2022-12-03T00:22:00.439Z,102178.75
2022-12-03T00:27:04.250Z,102182.44
2022-12-03T00:32:06.487Z,102189.38
2022-12-03T00:37:08.620Z,102196.25
2022-12-03T00:42:12.570Z,102181.56
2022-12-03T00:47:14.787Z,102175.31
2022-12-03T00:52:17.024Z,102187.00
2022-12-03T00:57:20.454Z,102183.63
2022-12-03T01:02:22.648Z,102178.56
2022-12-03T01:07:25.052Z,102185.59
2022-12-03T01:12:28.644Z,102175.31
2022-12-03T01:17:30.839Z,102184.84
2022-12-03T01:22:32.921Z,102180.00
2022-12-03T01:27:36.264Z,102190.97
2022-12-03T01:32:38.349Z,102189.91
2022-12-03T01:37:40.317Z,102181.91
2022-12-03T01:42:44.393Z,102187.84
2022-12-03T01:47:46.585Z,102187.75
2022-12-03T01:52:48.579Z,102178.84
2022-12-03T01:57:54.543Z,102185.41
2022-12-03T02:02:59.778Z,102190.81
2022-12-03T02:08:02.010Z,102181.00
2022-12-03T02:13:08.071Z,102180.56
2022-12-03T02:18:10.790Z,102178.31
2022-12-03T02:23:21.332Z,102183.63
2022-12-03T02:28:25.083Z,102177.94
2022-12-03T02:33:27.468Z,102184.31
2022-12-03T02:38:32.716Z,102183.53
2022-12-03T02:43:37.618Z,102182.53
2022-12-03T02:48:43.794Z,102178.66
2022-12-03T02:53:52.202Z,102175.63
2022-12-03T02:58:59.536Z,102181.38
2022-12-03T03:04:02.486Z,102179.84
2022-12-03T03:09:04.836Z,102183.44
2022-12-03T03:14:08.183Z,102180.72
2022-12-03T03:19:10.411Z,102172.81
2022-12-03T03:24:12.510Z,102171.66
2022-12-03T03:29:16.382Z,102179.28
2022-12-03T03:34:18.717Z,102166.53
2022-12-03T03:39:20.945Z,102156.09
2022-12-03T03:44:24.667Z,102151.44
2022-12-03T03:49:27.668Z,102149.38
2022-12-03T03:54:29.867Z,102141.94
2022-12-03T03:59:33.831Z,102145.69
2022-12-03T04:04:37.096Z,102139.59
2022-12-03T04:09:39.079Z,102131.34
2022-12-03T04:14:42.740Z,102132.41
2022-12-03T04:19:44.965Z,102121.81
2022-12-03T04:24:47.037Z,102130.44
2022-12-03T04:29:50.474Z,102123.78
2022-12-03T04:34:53.011Z,102119.28
2022-12-03T04:39:55.437Z,102123.63
2022-12-03T04:44:59.289Z,102122.00
2022-12-03T04:50:01.430Z,102124.59
2022-12-03T04:55:03.691Z,102123.41
2022-12-03T05:00:08.889Z,102114.91
2022-12-03T05:05:11.072Z,102107.78
2022-12-03T05:10:13.719Z,102104.50
2022-12-03T05:15:16.925Z,102109.97
2022-12-03T05:20:19.110Z,102105.09
2022-12-03T05:25:21.255Z,102106.28
2022-12-03T05:30:24.826Z,102108.97
2022-12-03T05:35:27.198Z,102104.31
2022-12-03T05:40:29.293Z,102105.63
2022-12-03T05:45:34.461Z,102100.28
2022-12-03T05:50:38.368Z,102100.72
2022-12-03T05:55:40.602Z,102104.75
2022-12-03T06:00:43.752Z,102097.56
2022-12-03T06:05:46.242Z,102098.00
2022-12-03T06:10:48.337Z,102094.69
2022-12-03T06:15:51.809Z,102093.63
2022-12-03T06:20:53.690Z,102104.03
2022-12-03T06:25:55.417Z,102093.63
2022-12-03T06:30:58.548Z,102100.06
2022-12-03T06:36:00.750Z,102096.81
2022-12-03T06:41:02.791Z,102099.97
2022-12-03T06:46:06.679Z,102098.63
2022-12-03T06:51:09.024Z,102095.41
2022-12-03T06:56:11.154Z,102093.25
2022-12-03T07:01:14.889Z,102093.44
2022-12-03T07:06:17.245Z,102100.59
2022-12-03T07:11:19.269Z,102099.81
2022-12-03T07:16:22.950Z,102092.00
2022-12-03T07:21:24.821Z,102109.59
2022-12-03T07:26:27.089Z,102100.78
2022-12-03T07:31:31.111Z,102098.81
2022-12-03T07:36:33.428Z,102099.63
2022-12-03T07:41:35.538Z,102093.97
2022-12-03T07:46:39.501Z,102094.59
2022-12-03T07:51:41.849Z,102097.13
2022-12-03T07:56:43.983Z,102094.16
2022-12-03T08:01:47.705Z,102089.22
2022-12-03T08:06:49.935Z,102086.25
2022-12-03T08:11:52.490Z,102071.72
2022-12-03T08:16:56.277Z,102081.22
2022-12-03T08:22:01.637Z,102078.81
2022-12-03T08:27:15.090Z,102072.50
2022-12-03T08:32:18.629Z,102063.25
2022-12-03T08:37:20.756Z,102071.53
2022-12-03T08:42:25.582Z,102073.16
2022-12-03T08:47:30.179Z,102071.09
2022-12-03T08:52:34.359Z,102069.09
2022-12-03T08:57:36.288Z,102056.22
2022-12-03T09:02:46.440Z,102056.75
2022-12-03T09:07:48.740Z,102061.91
2022-12-03T09:12:50.921Z,102065.31
2022-12-03T09:17:54.605Z,102055.25
2022-12-03T09:22:56.945Z,102052.13
2022-12-03T09:27:59.122Z,102047.41
2022-12-03T09:33:02.293Z,102045.94
2022-12-03T09:38:04.013Z,102048.50
2022-12-03T09:43:06.490Z,102030.47
2022-12-03T09:48:12.649Z,102036.50
2022-12-03T09:53:17.305Z,102036.47
2022-12-03T09:58:19.733Z,102034.00
2022-12-03T10:03:29.905Z,102029.19
2022-12-03T10:08:32.962Z,102031.31
2022-12-03T10:13:35.224Z,102024.44
2022-12-03T10:18:41.970Z,102021.06
2022-12-03T10:23:44.411Z,102023.69
2022-12-03T10:28:47.083Z,102015.38
2022-12-03T10:33:58.680Z,102010.31
2022-12-03T10:39:10.050Z,102014.63
2022-12-03T10:44:17.298Z,102009.09
2022-12-03T10:49:20.894Z,102001.84
2022-12-03T10:54:25.460Z,102010.91
2022-12-03T10:59:31.696Z,102009.31
2022-12-03T11:04:36.113Z,102007.50
2022-12-03T11:09:37.998Z,102008.03
2022-12-03T11:14:59.327Z,102005.25
2022-12-03T11:20:03.518Z,102000.69
2022-12-03T11:25:34.823Z,101982.47
2022-12-03T11:30:59.988Z,101982.13
2022-12-03T11:36:14.698Z,101970.66
2022-12-03T11:41:18.889Z,101969.72
2022-12-03T11:46:24.571Z,101965.50
2022-12-03T11:51:30.082Z,101966.53
2022-12-03T11:56:32.171Z,101955.88
2022-12-03T12:01:38.826Z,101966.16
2022-12-03T12:06:44.320Z,101957.19
2022-12-03T12:11:46.544Z,101952.31
2022-12-03T12:16:50.776Z,101958.59
2022-12-03T12:21:54.784Z,101963.22
2022-12-03T12:26:57.794Z,101954.00
2022-12-03T12:32:15.763Z,101947.81
2022-12-03T12:37:23.373Z,101940.94
2022-12-03T12:42:39.144Z,101930.97
2022-12-03T12:48:02.556Z,101925.84
2022-12-03T12:53:20.910Z,101920.94
2022-12-03T12:58:23.259Z,101907.31
2022-12-03T13:03:28.597Z,101895.84
2022-12-03T13:08:37.406Z,101905.13
2022-12-03T13:13:43.959Z,101901.63
2022-12-03T13:18:47.574Z,101894.59
2022-12-03T13:23:52.899Z,101884.84
2022-12-03T13:28:56.962Z,101887.78
2022-12-03T13:34:00.464Z,101890.16
2022-12-03T13:39:12.486Z,101897.47
2022-12-03T13:44:18.205Z,101894.38
2022-12-03T13:49:22.058Z,101895.34
2022-12-03T13:54:30.449Z,101891.19
2022-12-03T13:59:32.209Z,101876.13
2022-12-03T14:04:34.069Z,101878.97
2022-12-03T14:09:37.257Z,101891.59
2022-12-03T14:14:39.102Z,101888.19
2022-12-03T14:19:40.800Z,101888.94
2022-12-03T14:24:43.995Z,101878.16
2022-12-03T14:29:46.001Z,101881.69
2022-12-03T14:34:48.405Z,101886.97
2022-12-03T14:39:51.814Z,101876.53
2022-12-03T14:44:53.799Z,101875.38
2022-12-03T14:49:55.788Z,101886.97
2022-12-03T14:54:59.771Z,101892.19
2022-12-03T15:00:01.930Z,101886.91
2022-12-03T15:05:04.809Z,101885.19
2022-12-03T15:10:09.140Z,101884.13
2022-12-03T15:15:11.243Z,101884.72
2022-12-03T15:20:13.803Z,101882.28
2022-12-03T15:25:17.024Z,101891.88
2022-12-03T15:30:18.801Z,101893.69
2022-12-03T15:35:20.589Z,101902.94
2022-12-03T15:40:24.028Z,101904.56
2022-12-03T15:45:26.095Z,101893.19
2022-12-03T15:50:28.904Z,101890.81
2022-12-03T15:55:33.308Z,101888.09
2022-12-03T16:00:35.458Z,101884.72
2022-12-03T16:05:37.968Z,101888.59
2022-12-03T16:10:41.769Z,101890.09
2022-12-03T16:15:43.926Z,101883.81
2022-12-03T16:20:46.228Z,101870.53
2022-12-03T16:25:49.528Z,101877.13
2022-12-03T16:30:51.280Z,101878.03
2022-12-03T16:35:53.359Z,101879.81
2022-12-03T16:40:57.218Z,101877.88
2022-12-03T16:45:59.463Z,101882.50
2022-12-03T16:51:01.798Z,101878.34
2022-12-03T16:56:05.779Z,101875.34
2022-12-03T17:01:07.847Z,101873.75
2022-12-03T17:06:09.909Z,101883.78
2022-12-03T17:11:13.490Z,101876.53
2022-12-03T17:16:15.596Z,101875.47
2022-12-03T17:21:17.449Z,101868.09
2022-12-03T17:26:21.422Z,101870.53
2022-12-03T17:31:23.606Z,101871.66
2022-12-03T17:36:25.808Z,101865.31
2022-12-03T17:41:29.180Z,101861.06
2022-12-03T17:46:31.228Z,101861.47
2022-12-03T17:51:33.071Z,101847.34
2022-12-03T17:56:36.776Z,101855.38
2022-12-03T18:01:38.840Z,101842.13
2022-12-03T18:06:41.139Z,101852.91
2022-12-03T18:11:44.499Z,101850.38
2022-12-03T18:16:46.713Z,101849.41
2022-12-03T18:21:48.584Z,101861.84
2022-12-03T18:26:51.850Z,101856.41
2022-12-03T18:31:54.208Z,101852.91
2022-12-03T18:36:56.091Z,101861.72
2022-12-03T18:41:59.186Z,101845.41
2022-12-03T18:47:01.078Z,101856.31
2022-12-03T18:52:03.283Z,101853.91
2022-12-03T18:57:06.698Z,101853.06
2022-12-03T19:02:26.642Z,101861.13
2022-12-03T19:07:36.970Z,101854.03
2022-12-03T19:12:40.222Z,101846.69
2022-12-03T19:17:42.558Z,101848.91
2022-12-03T19:22:44.519Z,101839.53
2022-12-03T19:27:48.076Z,101856.22
2022-12-03T19:32:50.157Z,101850.59
2022-12-03T19:37:51.978Z,101848.41
2022-12-03T19:42:55.588Z,101849.16
2022-12-03T19:47:57.407Z,101863.78
2022-12-03T19:53:00.147Z,101854.13
2022-12-03T19:58:03.938Z,101852.66
2022-12-03T20:03:05.839Z,101852.72
2022-12-03T20:08:09.257Z,101851.09
2022-12-03T20:13:12.664Z,101859.06
2022-12-03T20:18:15.603Z,101859.22
2022-12-03T20:23:17.809Z,101855.47
2022-12-03T20:28:21.588Z,101852.06
2022-12-03T20:33:23.797Z,101847.75
2022-12-03T20:38:26.176Z,101849.28
2022-12-03T20:43:29.711Z,101848.28
2022-12-03T20:48:32.267Z,101850.59
2022-12-03T20:53:35.909Z,101849.25
2022-12-03T20:58:39.785Z,101851.63
2022-12-03T21:03:42.565Z,101852.75
2022-12-03T21:08:46.060Z,101850.22
2022-12-03T21:13:49.753Z,101844.19
2022-12-03T21:18:52.137Z,101848.19
2022-12-03T21:23:54.664Z,101841.19
2022-12-03T21:28:58.563Z,101846.81
2022-12-03T21:34:00.787Z,101842.91
2022-12-03T21:39:03.290Z,101834.41
2022-12-03T21:44:06.601Z,101836.03
2022-12-03T21:49:09.068Z,101827.22
2022-12-03T21:54:11.108Z,101831.66
2022-12-03T21:59:14.712Z,101832.63
2022-12-03T22:04:17.223Z,101827.72
2022-12-03T22:09:24.828Z,101836.75
2022-12-03T22:14:30.198Z,101830.31
2022-12-03T22:19:32.161Z,101830.78
2022-12-03T22:24:33.851Z,101826.16
2022-12-03T22:29:37.088Z,101828.22
2022-12-03T22:34:39.194Z,101823.47
2022-12-03T22:39:41.522Z,101814.50
2022-12-03T22:44:45.095Z,101814.00
2022-12-03T22:49:47.133Z,101819.09
2022-12-03T22:54:49.338Z,101819.81
2022-12-03T22:59:53.606Z,101802.00
2022-12-03T23:04:56.232Z,101807.81
2022-12-03T23:09:58.403Z,101803.72
2022-12-03T23:15:02.162Z,101795.22
2022-12-03T23:20:04.951Z,101802.88
2022-12-03T23:25:09.651Z,101788.75
2022-12-03T23:30:14.659Z,101783.81
2022-12-03T23:35:17.025Z,101782.41
2022-12-03T23:40:19.329Z,101785.91
2022-12-03T23:45:22.804Z,101780.63
2022-12-03T23:50:25.249Z,101785.47
2022-12-03T23:55:27.364Z,101782.78
